Time;durP1;ratioP1;P1;durP2;ratioP2;P2;SDS_P1;SDS_P2;PMS_P1;PMS_P2;Temp;Humidity;BMP_temperature;BMP_pressure;BME280_temperature;BME280_humidity;BME280_pressure;Samples;Min_cycle;Max_cycle;Signal;HPM_P1;HPM_P2
2022/06/07 00:00:14;;;;;;;31.42;11.57;;;12.40;99.90;;;;;;5093350;28;20104;-71
2022/06/07 00:02:40;;;;;;;26.60;12.38;;;12.40;99.90;;;;;;5094266;28;20044;-71
2022/06/07 00:05:06;;;;;;;27.17;12.80;;;12.40;99.90;;;;;;5109624;28;20044;-71
2022/06/07 00:07:32;;;;;;;25.33;11.90;;;12.40;99.90;;;;;;5092843;28;20040;-72
2022/06/07 00:09:58;;;;;;;26.40;12.27;;;12.40;99.90;;;;;;5093688;28;20069;-72
2022/06/07 00:12:25;;;;;;;23.40;12.10;;;12.40;99.90;;;;;;5093419;28;20040;-71
2022/06/07 00:14:51;;;;;;;22.00;11.80;;;12.50;99.90;;;;;;5093255;28;20048;-71
2022/06/07 00:17:17;;;;;;;22.23;11.60;;;12.50;99.90;;;;;;5092078;28;20120;-71
2022/06/07 00:19:43;;;;;;;27.60;12.10;;;12.50;99.90;;;;;;5093080;28;20158;-72
2022/06/07 00:22:09;;;;;;;22.60;11.93;;;12.50;99.90;;;;;;5091693;28;20136;-72
2022/06/07 00:24:36;;;;;;;25.02;12.63;;;12.50;99.90;;;;;;5093396;28;20074;-71
2022/06/07 00:27:02;;;;;;;26.08;12.40;;;12.40;99.90;;;;;;5091974;28;20059;-71
2022/06/07 00:29:28;;;;;;;26.98;13.98;;;12.40;99.90;;;;;;5092570;28;20067;-70
2022/06/07 00:31:55;;;;;;;24.67;13.10;;;12.40;99.90;;;;;;5091369;28;20044;-71
2022/06/07 00:34:21;;;;;;;29.33;13.88;;;12.40;99.90;;;;;;5092916;28;20123;-71
2022/06/07 00:36:47;;;;;;;23.92;12.45;;;12.50;99.90;;;;;;5092351;28;20075;-71
2022/06/07 00:39:13;;;;;;;24.75;13.30;;;12.50;99.90;;;;;;5091448;28;20044;-70
2022/06/07 00:41:39;;;;;;;24.43;13.13;;;12.50;99.90;;;;;;5092649;28;20098;-71
2022/06/07 00:44:23;;;;;;;22.33;11.82;;;12.50;99.90;;;;;;5092399;28;20314;-71
2022/06/07 00:46:55;;;;;;;24.38;12.60;;;12.50;99.90;;;;;;5092822;28;20059;-70
2022/06/07 00:49:22;;;;;;;22.75;12.35;;;12.50;99.90;;;;;;5092877;28;20040;-71
2022/06/07 00:51:48;;;;;;;;;;;12.60;99.90;;;;;;5092035;28;20060;-71
2022/06/07 00:54:28;;;;;;;22.97;11.03;;;12.50;99.90;;;;;;5092493;28;19920;-71
2022/06/07 00:56:55;;;;;;;23.30;12.02;;;12.60;99.90;;;;;;5092657;28;20094;-72
2022/06/07 00:59:22;;;;;;;27.48;12.77;;;12.60;99.90;;;;;;5092688;28;20109;-72
2022/06/07 01:01:48;;;;;;;22.45;12.27;;;12.60;99.90;;;;;;5090919;28;20040;-72
2022/06/07 01:04:14;;;;;;;21.50;11.52;;;12.60;99.90;;;;;;5092160;28;20048;-71
2022/06/07 01:12:08;;;;;;;22.63;11.65;;;12.70;99.90;;;;;;5093052;28;20497;-72
2022/06/07 01:14:34;;;;;;;21.08;11.23;;;12.60;99.90;;;;;;5091212;28;20047;-71
2022/06/07 01:16:59;;;;;;;26.70;11.82;;;12.60;99.90;;;;;;5092325;28;20066;-72
2022/06/07 01:19:26;;;;;;;19.45;9.85;;;12.60;99.90;;;;;;5112473;28;20067;-72
2022/06/07 01:21:52;;;;;;;19.38;10.50;;;12.70;99.90;;;;;;5091014;28;20132;-71
2022/06/07 01:24:18;;;;;;;19.25;10.60;;;12.70;99.90;;;;;;5074646;28;20131;-70
2022/06/07 01:26:44;;;;;;;23.48;10.80;;;12.70;99.90;;;;;;5092725;28;20123;-69
2022/06/07 01:29:11;;;;;;;20.25;10.10;;;12.70;99.90;;;;;;5092671;28;20132;-71
2022/06/07 01:31:38;;;;;;;21.63;10.20;;;12.70;99.90;;;;;;5090776;28;20468;-71
2022/06/07 01:34:04;;;;;;;18.63;10.10;;;12.70;99.90;;;;;;5092346;28;20125;-71
2022/06/07 01:36:31;;;;;;;22.10;10.93;;;12.80;99.90;;;;;;5091839;28;20445;-70
2022/06/07 01:41:53;;;;;;;20.35;8.68;;;12.70;99.90;;;;;;5091729;28;20040;-70
2022/06/07 01:44:20;;;;;;;18.98;8.52;;;12.80;99.90;;;;;;5091627;28;20444;-71
2022/06/07 01:46:46;;;;;;;23.55;9.77;;;12.80;99.90;;;;;;5090624;28;20104;-71
2022/06/07 01:49:12;;;;;;;18.13;9.38;;;12.80;99.90;;;;;;5091875;28;20444;-72
2022/06/07 01:51:37;;;;;;;21.00;9.90;;;12.80;99.90;;;;;;5092273;28;20085;-72
2022/06/07 01:54:03;;;;;;;20.15;9.65;;;12.80;99.90;;;;;;5090547;28;20052;-71
2022/06/07 01:56:29;;;;;;;20.55;9.25;;;12.80;99.90;;;;;;5090988;28;20348;-70
2022/06/07 01:58:56;;;;;;;20.13;10.20;;;12.80;99.90;;;;;;5092887;28;20040;-72
2022/06/07 02:01:22;;;;;;;25.13;9.52;;;12.70;99.90;;;;;;5092084;28;20040;-73
2022/06/07 02:03:47;;;;;;;20.92;9.30;;;12.80;99.90;;;;;;5090763;28;20177;-70
2022/06/07 02:06:14;;;;;;;20.73;10.25;;;12.80;99.90;;;;;;5092450;28;20111;-71
2022/06/07 02:08:41;;;;;;;21.45;9.85;;;12.80;99.90;;;;;;5111458;28;20040;-71
2022/06/07 02:11:14;;;;;;;20.55;9.55;;;12.80;99.90;;;;;;5094377;28;20428;-71
2022/06/07 02:13:41;;;;;;;24.02;10.73;;;12.80;99.90;;;;;;5094377;28;20059;-71
2022/06/07 02:16:07;;;;;;;18.80;9.48;;;12.80;99.90;;;;;;5095469;28;20048;-71
2022/06/07 02:18:34;;;;;;;23.05;10.57;;;12.80;99.90;;;;;;5094143;28;20055;-71
2022/06/07 02:21:00;;;;;;;20.80;8.50;;;12.70;99.90;;;;;;5095348;28;20109;-72
2022/06/07 02:23:30;;;;;;;18.80;9.47;;;12.70;99.90;;;;;;5095518;28;20529;-71
2022/06/07 02:26:06;;;;;;;20.90;10.00;;;12.80;99.90;;;;;;5094118;28;20293;-71
2022/06/07 02:28:38;;;;;;;19.42;9.45;;;12.70;99.90;;;;;;5095328;28;20048;-71
2022/06/07 02:31:05;;;;;;;20.70;10.10;;;12.70;99.90;;;;;;5110905;28;20353;-70
2022/06/07 02:33:33;;;;;;;22.40;9.40;;;12.70;99.90;;;;;;5094993;28;20407;-69
2022/06/07 02:35:59;;;;;;;22.08;9.85;;;12.70;99.90;;;;;;5094365;28;20051;-69
2022/06/07 02:38:25;;;;;;;19.42;9.43;;;12.70;99.90;;;;;;5076890;28;20055;-71
2022/06/07 02:40:53;;;;;;;21.67;10.07;;;12.80;99.90;;;;;;5093849;28;20044;-71
2022/06/07 02:43:19;;;;;;;21.70;9.10;;;12.70;99.90;;;;;;5094684;28;20048;-71
2022/06/07 02:45:45;;;;;;;21.98;10.27;;;12.80;99.90;;;;;;5094062;28;20051;-72
2022/06/07 02:48:11;;;;;;;20.50;10.13;;;12.80;99.90;;;;;;5094845;28;20048;-71
2022/06/07 02:50:37;;;;;;;23.15;9.93;;;12.80;99.90;;;;;;5093699;28;20044;-73
2022/06/07 02:53:03;;;;;;;20.90;10.32;;;12.80;99.90;;;;;;5094909;28;20101;-72
2022/06/07 02:55:29;;;;;;;20.80;9.40;;;12.80;99.90;;;;;;5094707;28;20050;-71
2022/06/07 02:57:55;;;;;;;19.02;9.10;;;12.70;99.90;;;;;;5095209;28;20040;-75
2022/06/07 03:00:21;;;;;;;25.80;10.82;;;12.70;99.90;;;;;;5093365;28;20044;-73
2022/06/07 03:02:48;;;;;;;21.13;10.80;;;12.70;99.90;;;;;;5095234;28;20143;-71
2022/06/07 03:05:15;;;;;;;24.27;10.07;;;12.70;99.90;;;;;;5093632;28;20127;-71
2022/06/07 03:07:41;;;;;;;22.15;11.13;;;12.70;99.90;;;;;;5076326;28;20052;-72
2022/06/07 03:10:10;;;;;;;24.00;11.48;;;12.70;99.90;;;;;;5094608;28;20112;-73
2022/06/07 03:12:36;;;;;;;25.55;11.82;;;12.70;99.90;;;;;;5098822;28;20460;-72
2022/06/07 03:15:01;;;;;;;21.50;10.75;;;12.60;99.90;;;;;;5093076;28;20048;-72
2022/06/07 03:17:27;;;;;;;23.10;10.25;;;12.60;99.90;;;;;;5093575;28;20044;-72
2022/06/07 03:19:56;;;;;;;20.10;10.38;;;12.60;99.90;;;;;;5094513;28;20414;-74
2022/06/07 03:22:23;;;;;;;24.20;10.75;;;12.60;99.90;;;;;;5092360;28;20056;-72
2022/06/07 03:24:49;;;;;;;25.27;10.50;;;12.70;99.90;;;;;;5094678;28;20044;-72
2022/06/07 03:27:15;;;;;;;22.07;10.17;;;12.70;99.90;;;;;;5093005;28;20048;-73
2022/06/07 03:29:41;;;;;;;22.55;10.55;;;12.70;99.90;;;;;;5094798;28;20066;-72
2022/06/07 03:32:08;;;;;;;24.08;10.90;;;12.70;99.90;;;;;;5093237;28;20127;-73
2022/06/07 03:34:35;;;;;;;21.27;10.02;;;12.70;99.90;;;;;;5075766;28;20163;-73
2022/06/07 03:37:01;;;;;;;22.02;11.02;;;12.60;99.90;;;;;;5092817;28;20079;-73
2022/06/07 03:39:27;;;;;;;25.85;10.52;;;12.70;99.90;;;;;;5094005;28;20052;-75
2022/06/07 03:41:54;;;;;;;24.40;10.63;;;12.70;99.90;;;;;;5094636;28;20067;-72
2022/06/07 03:44:20;;;;;;;26.20;11.48;;;12.70;99.90;;;;;;5093129;28;20403;-73
2022/06/07 03:46:47;;;;;;;19.88;8.38;;;12.70;99.90;;;;;;5093732;28;20044;-70
2022/06/07 03:49:13;;;;;;;25.88;10.80;;;12.80;99.90;;;;;;5094272;28;20468;-73
2022/06/07 03:51:39;;;;;;;22.45;10.80;;;12.80;99.90;;;;;;5093058;28;20039;-72
2022/06/07 03:54:05;;;;;;;23.27;11.20;;;12.70;99.90;;;;;;5093796;28;20040;-72
2022/06/07 03:56:32;;;;;;;24.05;11.07;;;12.80;99.90;;;;;;5095561;28;20101;-72
2022/06/07 03:58:58;;;;;;;24.83;10.48;;;12.70;99.90;;;;;;5094240;28;20446;-71
2022/06/07 04:01:26;;;;;;;23.27;10.77;;;12.80;99.90;;;;;;5077216;28;20170;-71
2022/06/07 04:03:54;;;;;;;23.50;10.00;;;12.80;99.90;;;;;;5094447;28;20048;-71
2022/06/07 04:06:27;;;;;;;23.85;10.57;;;12.80;99.90;;;;;;5093568;28;20051;-71
2022/06/07 04:08:53;;;;;;;23.17;10.77;;;12.80;99.90;;;;;;5095460;28;20407;-73
2022/06/07 04:11:21;;;;;;;25.67;10.53;;;12.80;99.90;;;;;;5095115;28;20044;-71
2022/06/07 04:13:49;;;;;;;24.17;10.52;;;12.90;99.90;;;;;;5095945;28;20040;-71
2022/06/07 04:16:18;;;;;;;18.80;9.15;;;12.90;99.90;;;;;;5094210;28;20074;-71
2022/06/07 04:18:44;;;;;;;25.08;10.45;;;12.90;99.90;;;;;;5094041;28;20454;-72
2022/06/07 04:21:12;;;;;;;24.45;11.00;;;12.90;99.90;;;;;;5092449;28;20048;-71
2022/06/07 04:23:38;;;;;;;25.48;10.98;;;13.00;99.90;;;;;;5093806;28;20063;-72
2022/06/07 04:26:09;;;;;;;25.13;10.65;;;12.90;99.90;;;;;;5092385;28;20051;-72
2022/06/07 04:28:35;;;;;;;28.80;12.55;;;12.90;99.90;;;;;;5093907;28;20114;-72
2022/06/07 04:31:01;;;;;;;24.02;10.45;;;13.00;99.90;;;;;;5093835;28;20487;-71
2022/06/07 04:33:27;;;;;;;23.58;11.63;;;13.00;99.90;;;;;;5092882;28;20050;-72
2022/06/07 04:35:53;;;;;;;27.13;11.45;;;12.90;99.90;;;;;;5093291;28;20047;-72
2022/06/07 04:38:19;;;;;;;23.35;10.75;;;13.00;99.90;;;;;;5092919;28;20054;-72
2022/06/07 04:40:44;;;;;;;22.55;10.75;;;13.00;99.90;;;;;;5108733;28;20105;-72
2022/06/07 04:43:12;;;;;;;24.50;11.02;;;13.00;99.90;;;;;;5092013;28;20047;-71
2022/06/07 04:45:37;;;;;;;;;;;13.00;99.90;;;;;;5092173;28;20047;-72
2022/06/07 04:48:08;;;;;;;19.00;8.87;;;13.00;99.90;;;;;;5092560;28;20324;-73
2022/06/07 04:50:34;;;;;;;24.23;11.15;;;13.00;99.90;;;;;;5092480;28;20318;-73
2022/06/07 04:53:00;;;;;;;25.98;11.27;;;13.10;99.90;;;;;;5091836;28;20097;-74
2022/06/07 04:55:26;;;;;;;25.20;10.60;;;13.00;99.90;;;;;;5092576;28;20467;-73
2022/06/07 04:57:52;;;;;;;24.55;10.52;;;13.10;99.90;;;;;;5091338;28;20040;-72
2022/06/07 05:00:18;;;;;;;24.48;9.98;;;13.10;99.90;;;;;;5092171;28;20149;-70
2022/06/07 05:02:46;;;;;;;30.85;11.35;;;13.20;99.90;;;;;;5091934;28;20123;-71
2022/06/07 05:05:14;;;;;;;24.73;11.02;;;13.20;99.90;;;;;;5092436;28;20090;-71
2022/06/07 05:07:40;;;;;;;22.80;9.80;;;13.20;99.90;;;;;;5092484;28;20488;-71
2022/06/07 05:10:09;;;;;;;22.30;10.18;;;13.20;99.90;;;;;;5091404;28;20055;-72
2022/06/07 05:12:36;;;;;;;25.23;10.68;;;13.20;99.90;;;;;;5091241;28;20487;-73
2022/06/07 05:15:03;;;;;;;27.35;10.20;;;13.30;99.90;;;;;;5091552;28;20044;-72
2022/06/07 05:17:29;;;;;;;24.00;10.02;;;13.40;99.90;;;;;;5092056;28;20174;-70
2022/06/07 05:19:56;;;;;;;22.48;10.32;;;13.40;99.90;;;;;;5091292;28;20476;-71
2022/06/07 05:22:22;;;;;;;23.38;9.35;;;13.40;99.90;;;;;;5074299;28;20044;-73
2022/06/07 05:24:48;;;;;;;21.48;9.82;;;13.50;99.90;;;;;;5091603;28;20475;-72
2022/06/07 05:27:18;;;;;;;23.23;10.40;;;13.50;99.90;;;;;;5092250;28;20058;-71
2022/06/07 05:29:53;;;;;;;19.95;8.95;;;13.60;99.90;;;;;;5092848;28;20051;-72
2022/06/07 05:32:19;;;;;;;23.33;10.43;;;13.60;99.90;;;;;;5093087;28;20047;-72
2022/06/07 05:34:45;;;;;;;22.65;10.50;;;13.60;99.90;;;;;;5091966;28;20488;-71
2022/06/07 05:37:18;;;;;;;23.08;10.52;;;13.60;99.90;;;;;;5092469;28;20040;-73
2022/06/07 05:39:44;;;;;;;24.40;10.32;;;13.60;99.90;;;;;;5092439;28;20059;-72
2022/06/07 05:42:12;;;;;;;20.73;9.38;;;13.70;99.90;;;;;;5077697;28;20040;-73
2022/06/07 05:44:38;;;;;;;23.83;9.85;;;13.80;99.90;;;;;;5096282;28;20077;-73
2022/06/07 05:47:05;;;;;;;21.10;9.55;;;13.90;99.90;;;;;;5096569;28;20069;-71
2022/06/07 05:49:31;;;;;;;;;;;13.90;99.90;;;;;;5095805;28;20133;-71
2022/06/07 05:51:57;;;;;;;26.37;10.63;;;13.80;99.90;;;;;;5096564;28;20007;-72
2022/06/07 05:54:23;;;;;;;24.53;11.60;;;13.90;99.90;;;;;;5094527;28;20051;-72
2022/06/07 05:56:49;;;;;;;19.70;8.93;;;13.90;99.90;;;;;;5094816;28;20040;-73
2022/06/07 05:59:15;;;;;;;23.70;10.13;;;13.90;99.90;;;;;;5095401;28;20285;-73
2022/06/07 06:01:41;;;;;;;20.97;10.00;;;14.00;99.90;;;;;;5097148;28;20480;-72
2022/06/07 06:04:08;;;;;;;20.98;9.27;;;14.10;99.90;;;;;;5097139;28;20301;-73
2022/06/07 06:06:35;;;;;;;23.17;8.85;;;14.20;99.90;;;;;;5095591;28;20043;-72
2022/06/07 06:11:46;;;;;;;22.67;8.50;;;14.20;99.90;;;;;;5095626;28;20133;-73
2022/06/07 06:14:12;;;;;;;19.65;9.85;;;14.20;99.90;;;;;;5096105;28;20047;-72
2022/06/07 06:16:38;;;;;;;23.20;10.50;;;14.20;99.90;;;;;;5094953;28;20127;-73
2022/06/07 06:19:04;;;;;;;22.10;10.48;;;14.20;99.90;;;;;;5096133;28;20083;-72
2022/06/07 06:21:35;;;;;;;22.77;10.20;;;14.10;99.90;;;;;;5096078;28;20143;-72
2022/06/07 06:24:01;;;;;;;19.80;9.63;;;14.10;99.90;;;;;;5095540;28;20060;-73
2022/06/07 06:26:28;;;;;;;21.92;9.32;;;14.00;99.90;;;;;;5095015;28;20460;-70
2022/06/07 06:28:54;;;;;;;20.60;9.48;;;14.00;99.90;;;;;;5095337;28;20448;-72
2022/06/07 06:31:20;;;;;;;18.77;10.27;;;14.00;99.90;;;;;;5095783;28;20169;-71
2022/06/07 06:33:49;;;;;;;21.83;10.05;;;13.90;99.90;;;;;;5097909;28;20485;-73
2022/06/07 06:36:17;;;;;;;19.63;8.90;;;13.80;99.90;;;;;;5093927;28;20050;-73
2022/06/07 06:38:43;;;;;;;22.95;9.73;;;13.80;99.90;;;;;;5095279;28;20051;-73
2022/06/07 06:41:13;;;;;;;19.95;9.55;;;13.80;99.90;;;;;;5095120;28;20048;-72
2022/06/07 06:43:40;;;;;;;24.33;10.18;;;13.80;99.90;;;;;;5096383;28;20044;-71
2022/06/07 06:46:07;;;;;;;18.83;9.32;;;13.80;99.90;;;;;;5077868;28;20044;-71
2022/06/07 06:48:33;;;;;;;;;;;13.80;99.90;;;;;;5094878;28;20087;-71
2022/06/07 06:51:01;;;;;;;21.50;9.70;;;13.70;99.90;;;;;;5078583;28;19920;-72
2022/06/07 06:53:27;;;;;;;23.42;10.43;;;13.70;99.90;;;;;;5095552;28;20091;-72
2022/06/07 06:55:55;;;;;;;22.00;8.97;;;13.60;99.90;;;;;;5078316;28;20052;-71
2022/06/07 06:58:21;;;;;;;21.67;10.32;;;13.60;99.90;;;;;;5095691;28;20361;-72
2022/06/07 07:00:49;;;;;;;21.13;10.65;;;13.50;99.90;;;;;;5095568;28;20079;-71
2022/06/07 07:03:16;;;;;;;24.13;9.85;;;13.60;99.90;;;;;;5094279;28;20073;-71
2022/06/07 07:05:49;;;;;;;21.77;10.32;;;13.60;99.90;;;;;;5077052;28;20087;-72
2022/06/07 07:08:15;;;;;;;20.42;9.90;;;13.50;99.90;;;;;;5078258;28;20048;-75
2022/06/07 07:10:41;;;;;;;26.70;10.48;;;13.50;99.90;;;;;;5095617;28;20524;-72
2022/06/07 07:13:07;;;;;;;20.00;10.25;;;13.50;99.90;;;;;;5095605;28;20082;-72
2022/06/07 07:15:33;;;;;;;21.23;10.45;;;13.60;99.90;;;;;;5077210;28;20052;-74
2022/06/07 07:17:59;;;;;;;20.60;9.48;;;13.60;99.90;;;;;;5094686;28;20040;-72
2022/06/07 07:20:25;;;;;;;19.92;10.07;;;13.80;99.90;;;;;;5094501;28;20089;-74
2022/06/07 07:22:50;;;;;;;19.83;10.02;;;13.80;99.90;;;;;;5093233;28;20048;-74
2022/06/07 07:25:16;;;;;;;20.92;10.45;;;13.90;99.90;;;;;;5076381;28;20063;-75
2022/06/07 07:27:42;;;;;;;21.35;10.50;;;13.90;99.90;;;;;;5110327;28;20047;-71
2022/06/07 07:30:08;;;;;;;22.10;10.73;;;13.90;99.90;;;;;;5095137;28;20118;-71
2022/06/07 07:32:34;;;;;;;24.20;10.82;;;13.90;99.90;;;;;;5093609;28;20056;-72
2022/06/07 07:35:00;;;;;;;19.05;9.45;;;13.90;99.90;;;;;;5093446;28;20512;-72
2022/06/07 07:37:26;;;;;;;22.75;10.10;;;13.90;99.90;;;;;;5076518;28;20549;-70
2022/06/07 07:39:52;;;;;;;23.80;10.50;;;13.80;99.90;;;;;;5093803;28;20079;-73
2022/06/07 07:42:18;;;;;;;27.20;10.35;;;13.80;99.90;;;;;;5095606;28;20093;-75
2022/06/07 07:44:44;;;;;;;20.30;9.45;;;13.70;99.90;;;;;;5093980;28;20043;-71
2022/06/07 07:47:10;;;;;;;19.50;9.88;;;13.80;99.90;;;;;;5094686;28;20484;-73
2022/06/07 07:49:36;;;;;;;23.52;9.93;;;13.80;99.90;;;;;;5095101;28;20044;-72
2022/06/07 07:52:02;;;;;;;22.77;8.82;;;13.90;99.90;;;;;;5094323;28;20131;-72
2022/06/07 07:54:28;;;;;;;18.95;10.23;;;13.90;99.90;;;;;;5093745;28;20484;-72
2022/06/07 07:56:55;;;;;;;24.10;10.40;;;13.90;99.90;;;;;;5093990;28;20059;-72
2022/06/07 07:59:22;;;;;;;28.10;10.27;;;14.00;99.90;;;;;;5092467;28;20087;-72
2022/06/07 08:01:49;;;;;;;22.02;9.98;;;14.00;99.90;;;;;;5092394;28;20048;-72
2022/06/07 08:04:15;;;;;;;20.92;9.77;;;14.10;99.90;;;;;;5074920;28;20399;-72
2022/06/07 08:06:41;;;;;;;22.73;10.57;;;14.10;99.90;;;;;;5076237;28;20040;-72
2022/06/07 08:09:08;;;;;;;22.60;10.98;;;14.10;99.90;;;;;;5093380;28;20514;-71
2022/06/07 08:11:36;;;;;;;20.55;9.63;;;14.10;99.90;;;;;;5092311;28;20455;-74
2022/06/07 08:14:06;;;;;;;19.30;9.02;;;14.10;99.90;;;;;;5075386;28;20155;-72
2022/06/07 08:16:32;;;;;;;20.17;9.63;;;14.10;99.90;;;;;;5093754;28;20051;-73
2022/06/07 08:18:59;;;;;;;19.60;10.65;;;14.20;99.90;;;;;;5093302;28;20388;-72
2022/06/07 08:21:26;;;;;;;21.58;10.23;;;14.20;99.90;;;;;;5092623;28;20083;-72
2022/06/07 08:23:56;;;;;;;18.35;10.15;;;14.20;99.90;;;;;;5093267;28;20052;-73
2022/06/07 08:26:26;;;;;;;26.00;11.43;;;14.30;99.90;;;;;;5092703;28;20047;-73
2022/06/07 08:28:52;;;;;;;27.05;11.57;;;14.20;99.90;;;;;;5093990;28;20443;-73
2022/06/07 08:31:21;;;;;;;24.47;11.07;;;14.20;99.90;;;;;;5092059;28;20139;-73
2022/06/07 08:39:17;;;;;;;22.45;10.48;;;14.20;99.90;;;;;;5092147;28;20059;-73
2022/06/07 08:42:15;;;;;;;20.52;9.98;;;14.30;99.90;;;;;;5092333;28;20376;-74
2022/06/07 08:45:00;;;;;;;25.52;9.63;;;14.40;99.90;;;;;;5093577;28;20048;-73
2022/06/07 08:47:30;;;;;;;21.40;10.05;;;14.40;99.90;;;;;;5091859;28;20046;-73
2022/06/07 08:49:59;;;;;;;19.80;9.48;;;14.40;99.90;;;;;;5092858;28;20048;-72
2022/06/07 08:52:33;;;;;;;20.25;9.05;;;14.50;99.90;;;;;;5075438;28;20139;-73
2022/06/07 08:55:01;;;;;;;22.13;8.73;;;14.60;99.90;;;;;;5075071;28;20056;-73
2022/06/07 08:57:36;;;;;;;20.10;8.75;;;14.60;99.90;;;;;;5075661;28;20087;-72
2022/06/07 09:00:23;;;;;;;21.33;8.85;;;14.70;99.90;;;;;;5108787;28;20510;-73
2022/06/07 09:03:07;;;;;;;17.98;7.97;;;14.70;99.90;;;;;;5093350;28;20101;-72
2022/06/07 09:05:33;;;;;;;18.35;7.82;;;14.70;99.90;;;;;;5094074;28;20364;-72
2022/06/07 09:07:59;;;;;;;23.35;9.02;;;14.70;99.90;;;;;;5092032;28;20040;-73
2022/06/07 09:13:24;;;;;;;17.23;8.20;;;14.70;99.90;;;;;;5094227;28;20454;-72
2022/06/07 09:15:53;;;;;;;18.67;7.97;;;14.70;99.90;;;;;;5096363;28;20107;-72
2022/06/07 09:18:23;;;;;;;19.05;8.07;;;14.60;99.90;;;;;;5096565;28;20073;-75
2022/06/07 09:20:53;;;;;;;20.40;8.90;;;14.70;99.90;;;;;;5096149;28;20083;-72
2022/06/07 09:23:32;;;;;;;19.85;8.40;;;14.70;99.90;;;;;;5096428;28;20098;-73
2022/06/07 09:26:14;;;;;;;16.92;8.23;;;14.70;99.90;;;;;;5097055;28;20078;-73
2022/06/07 09:28:39;;;;;;;15.70;8.32;;;14.80;99.90;;;;;;5096823;28;20476;-73
2022/06/07 09:31:15;;;;;;;14.05;7.80;;;14.80;99.90;;;;;;5096682;28;20046;-73
2022/06/07 09:33:55;;;;;;;17.17;7.43;;;14.80;99.90;;;;;;5095580;28;20080;-73
2022/06/07 09:36:40;;;;;;;16.20;8.30;;;14.80;99.90;;;;;;5079240;28;20062;-72
2022/06/07 09:39:19;;;;;;;16.52;6.25;;;14.90;99.90;;;;;;5094957;28;20036;-73
2022/06/07 09:41:54;;;;;;;19.08;7.68;;;15.10;99.90;;;;;;5095621;28;20054;-72
2022/06/07 09:44:35;;;;;;;15.93;7.15;;;15.30;99.90;;;;;;5095973;28;20048;-72
2022/06/07 09:47:21;;;;;;;17.77;7.78;;;15.60;99.90;;;;;;5096738;28;20083;-72
2022/06/07 09:49:51;;;;;;;14.75;7.03;;;16.00;99.90;;;;;;5096710;28;20459;-73
2022/06/07 09:52:36;;;;;;;13.23;6.07;;;16.20;99.90;;;;;;5096116;28;20511;-74
2022/06/07 09:55:32;;;;;;;15.17;6.90;;;16.30;99.90;;;;;;5096902;28;20040;-74
2022/06/07 09:58:41;;;;;;;13.45;5.88;;;16.20;99.90;;;;;;5094968;28;20119;-71
2022/06/07 10:01:24;;;;;;;21.65;7.32;;;16.10;99.90;;;;;;5096374;28;20411;-72
2022/06/07 10:04:00;;;;;;;13.95;7.10;;;16.00;99.90;;;;;;5094595;28;20465;-74
2022/06/07 10:06:33;;;;;;;17.80;6.75;;;15.70;99.90;;;;;;5095042;28;20047;-73
2022/06/07 10:09:30;;;;;;;21.30;7.30;;;15.70;99.90;;;;;;5094786;28;20048;-73
2022/06/07 10:12:25;;;;;;;16.70;6.75;;;15.80;99.90;;;;;;5112313;28;20067;-72
2022/06/07 10:15:02;;;;;;;18.83;6.80;;;15.70;99.90;;;;;;5094048;28;20048;-73
2022/06/07 10:17:27;;;;;;;22.60;6.90;;;15.80;99.90;;;;;;5095192;28;20480;-73
2022/06/07 10:20:03;;;;;;;14.25;6.55;;;15.80;99.90;;;;;;5096261;28;20139;-72
2022/06/07 10:22:40;;;;;;;16.73;7.03;;;16.00;99.90;;;;;;5095716;28;20125;-72
2022/06/07 10:25:09;;;;;;;16.55;7.35;;;16.20;99.90;;;;;;5095672;28;20528;-72
2022/06/07 10:27:41;;;;;;;11.93;7.10;;;16.40;99.90;;;;;;5095267;28;20039;-71
2022/06/07 10:30:34;;;;;;;16.95;6.97;;;16.60;99.90;;;;;;5097311;28;20048;-73
2022/06/07 10:33:31;;;;;;;17.50;7.43;;;16.70;99.90;;;;;;5096448;28;20040;-72
2022/06/07 10:36:16;;;;;;;12.98;6.97;;;16.50;99.90;;;;;;5078791;28;20048;-72
2022/06/07 10:38:47;;;;;;;15.52;7.20;;;16.70;99.90;;;;;;5096981;28;20147;-73
2022/06/07 10:41:51;;;;;;;15.30;7.28;;;16.80;99.90;;;;;;5095760;28;20131;-73
2022/06/07 10:44:46;;;;;;;19.45;7.85;;;16.90;99.90;;;;;;5096420;28;20067;-72
2022/06/07 10:47:28;;;;;;;17.53;7.43;;;17.00;99.90;;;;;;5093699;28;20067;-71
2022/06/07 10:50:03;;;;;;;17.23;7.35;;;16.80;99.90;;;;;;5094476;28;20284;-71
2022/06/07 10:52:48;;;;;;;20.15;7.30;;;16.70;99.90;;;;;;5095650;28;20104;-72
2022/06/07 10:55:24;;;;;;;17.45;7.20;;;16.80;99.90;;;;;;5095532;28;20120;-72
2022/06/07 10:57:57;;;;;;;18.63;7.47;;;16.80;99.90;;;;;;5095523;28;20054;-73
2022/06/07 11:00:48;;;;;;;19.95;7.25;;;16.90;99.90;;;;;;5095637;28;20201;-73
2022/06/07 11:03:19;;;;;;;20.13;7.13;;;16.90;99.90;;;;;;5099720;28;20040;-73
2022/06/07 11:09:22;;;;;;;16.23;7.53;;;17.20;99.90;;;;;;5095633;28;20056;-72
2022/06/07 11:11:57;;;;;;;18.75;6.80;;;17.20;99.90;;;;;;5099927;28;20181;-74
2022/06/07 11:14:49;;;;;;;14.65;6.10;;;17.60;99.90;;;;;;5094843;28;20102;-73
2022/06/07 11:17:37;;;;;;;16.77;7.10;;;17.70;99.90;;;;;;5093859;28;20059;-73
2022/06/07 11:20:23;;;;;;;17.42;6.18;;;17.90;99.90;;;;;;5094607;28;20059;-74
2022/06/07 11:23:02;;;;;;;16.23;7.05;;;18.00;99.90;;;;;;5095031;28;20353;-73
2022/06/07 11:25:35;;;;;;;20.85;7.65;;;17.70;99.90;;;;;;5095854;28;20055;-74
2022/06/07 11:28:18;;;;;;;16.65;6.93;;;17.80;99.90;;;;;;5094854;28;20040;-73
2022/06/07 11:30:48;;;;;;;16.40;7.07;;;17.70;99.90;;;;;;5080659;28;20081;-72
2022/06/07 11:33:53;;;;;;;19.10;7.30;;;18.20;99.90;;;;;;5111914;28;20056;-74
2022/06/07 11:36:24;;;;;;;13.70;6.80;;;18.40;99.90;;;;;;5070226;28;20087;-74
2022/06/07 11:39:01;;;;;;;16.15;6.55;;;18.50;99.90;;;;;;5075463;28;20476;-74
2022/06/07 11:41:39;;;;;;;;;;;18.50;99.90;;;;;;5093716;28;20127;-74
2022/06/07 11:44:32;;;;;;;17.35;6.07;;;18.60;99.90;;;;;;5093419;28;20318;-73
2022/06/07 11:47:07;;;;;;;17.23;7.05;;;18.80;99.90;;;;;;5096054;28;20044;-73
2022/06/07 11:49:42;;;;;;;16.90;6.65;;;19.00;99.90;;;;;;5094834;28;20117;-74
2022/06/07 11:52:13;;;;;;;14.43;6.53;;;18.90;99.90;;;;;;5094779;28;20075;-74
2022/06/07 11:54:45;;;;;;;15.00;5.95;;;18.70;99.90;;;;;;5076281;28;20060;-71
2022/06/07 11:57:35;;;;;;;18.52;6.35;;;19.10;99.90;;;;;;5094809;28;20044;-72
2022/06/07 12:00:16;;;;;;;15.60;6.30;;;19.30;99.90;;;;;;5095205;28;20077;-74
2022/06/07 12:03:11;;;;;;;14.32;6.07;;;19.10;99.90;;;;;;5112857;28;20047;-74
2022/06/07 12:05:54;;;;;;;11.88;6.45;;;18.80;99.90;;;;;;5093159;28;20051;-74
2022/06/07 12:08:32;;;;;;;14.43;5.85;;;18.70;99.90;;;;;;5095109;28;20127;-74
2022/06/07 12:11:04;;;;;;;16.98;6.63;;;18.90;99.90;;;;;;5093288;28;20094;-75
2022/06/07 12:13:52;;;;;;;14.57;6.93;;;19.10;99.90;;;;;;5094053;28;20468;-75
2022/06/07 12:16:27;;;;;;;13.95;6.72;;;19.50;99.90;;;;;;5095156;28;20402;-74
2022/06/07 12:18:57;;;;;;;12.98;5.97;;;19.60;99.90;;;;;;5094131;28;20064;-77
2022/06/07 12:21:24;;;;;;;19.27;5.97;;;19.60;99.90;;;;;;5094664;28;20067;-74
2022/06/07 12:24:09;;;;;;;;;;;19.80;99.90;;;;;;5093463;28;20406;-75
2022/06/07 12:26:35;;;;;;;15.80;6.65;;;20.10;99.90;;;;;;5078087;28;19959;-75
2022/06/07 12:29:23;;;;;;;13.33;7.13;;;19.60;99.90;;;;;;5059567;28;20140;-75
2022/06/07 12:32:01;;;;;;;17.55;6.18;;;19.70;99.90;;;;;;5068849;28;20435;-74
2022/06/07 12:34:36;;;;;;;15.60;6.93;;;19.90;99.90;;;;;;5059768;28;20040;-75
2022/06/07 12:37:08;;;;;;;15.93;7.90;;;19.80;99.90;;;;;;5093915;28;20048;-73
2022/06/07 12:39:46;;;;;;;17.83;6.28;;;18.60;99.90;;;;;;5093277;28;20071;-75
2022/06/07 12:42:16;;;;;;;18.48;5.93;;;19.10;99.90;;;;;;5093798;28;20044;-73
2022/06/07 12:44:54;;;;;;;16.08;4.82;;;19.00;99.90;;;;;;5075785;28;20091;-73
2022/06/07 12:47:24;;;;;;;16.35;5.97;;;18.90;99.90;;;;;;5093469;28;20051;-74
2022/06/07 12:49:52;;;;;;;14.65;5.82;;;19.30;99.90;;;;;;5076271;28;20453;-73
2022/06/07 12:52:27;;;;;;;17.30;5.60;;;19.20;99.90;;;;;;5092746;28;20085;-75
2022/06/07 12:55:00;;;;;;;17.60;5.57;;;18.90;99.90;;;;;;5094424;28;20048;-74
2022/06/07 12:57:29;;;;;;;17.63;5.63;;;18.90;99.90;;;;;;5093400;28;20121;-75
2022/06/07 13:00:10;;;;;;;15.23;6.13;;;19.00;99.90;;;;;;5093365;28;20036;-74
2022/06/07 13:02:44;;;;;;;16.23;5.32;;;19.30;99.90;;;;;;5092470;28;20044;-74
2022/06/07 13:05:18;;;;;;;14.13;5.78;;;19.20;99.90;;;;;;5094405;28;20048;-72
2022/06/07 13:07:52;;;;;;;16.40;5.43;;;19.50;99.90;;;;;;5094243;28;20077;-73
2022/06/07 13:10:24;;;;;;;14.50;5.47;;;19.60;99.90;;;;;;5092754;28;20113;-74
2022/06/07 13:12:54;;;;;;;19.25;6.45;;;19.90;99.90;;;;;;5076579;28;20472;-74